createdAt,value
2018-09-26T00:00:21.747Z,71.85
2018-09-26T00:02:56.745Z,69.00
2018-09-26T00:05:24.768Z,67.45
2018-09-26T00:07:52.660Z,66.76
2018-09-26T00:10:20.740Z,66.31
2018-09-26T00:12:48.704Z,66.71
2018-09-26T00:15:16.628Z,66.02
2018-09-26T00:17:44.800Z,66.04
2018-09-26T00:20:12.748Z,65.78
2018-09-26T00:22:40.628Z,65.56
2018-09-26T00:25:08.620Z,65.95
2018-09-26T00:27:36.575Z,65.85
2018-09-26T00:30:04.580Z,65.79
2018-09-26T00:32:32.604Z,65.54
2018-09-26T00:35:00.600Z,65.79
2018-09-26T00:37:28.609Z,65.61
2018-09-26T00:39:56.624Z,65.69
2018-09-26T00:42:24.553Z,65.57
2018-09-26T00:44:52.521Z,65.81
2018-09-26T00:47:20.477Z,65.91
2018-09-26T00:49:48.401Z,65.93
2018-09-26T00:52:16.322Z,65.22
2018-09-26T00:54:44.727Z,65.62
2018-09-26T00:57:12.660Z,65.82
2018-09-26T00:59:40.545Z,66.03
2018-09-26T01:02:08.503Z,66.27
2018-09-26T01:04:36.421Z,65.94
2018-09-26T01:07:04.360Z,65.85
2018-09-26T01:09:32.320Z,65.96
2018-09-26T01:12:00.296Z,66.06
2018-09-26T01:14:28.320Z,65.96
2018-09-26T01:16:56.210Z,66.01
2018-09-26T01:19:24.126Z,65.82
2018-09-26T01:21:52.042Z,65.50
2018-09-26T01:24:20.017Z,65.51
2018-09-26T01:26:47.866Z,65.85
2018-09-26T01:29:15.836Z,65.92
2018-09-26T01:31:43.783Z,66.18
2018-09-26T01:34:11.726Z,65.94
2018-09-26T01:36:39.705Z,66.04
2018-09-26T01:39:08.662Z,66.75
2018-09-26T01:41:36.648Z,65.57
2018-09-26T01:44:04.743Z,65.83
2018-09-26T01:46:32.636Z,65.73
2018-09-26T01:49:00.634Z,65.76
2018-09-26T01:51:28.561Z,65.56
2018-09-26T01:53:56.495Z,65.56
2018-09-26T01:56:24.440Z,65.55
2018-09-26T01:58:52.346Z,65.66
2018-09-26T02:01:20.297Z,65.29
2018-09-26T02:03:48.151Z,65.35
2018-09-26T02:06:16.301Z,64.88
2018-09-26T02:08:44.144Z,64.67
2018-09-26T02:11:12.117Z,65.03
2018-09-26T02:13:40.036Z,64.60
2018-09-26T02:16:08.210Z,64.65
2018-09-26T02:18:36.085Z,64.74
2018-09-26T02:21:04.091Z,64.50
2018-09-26T02:23:32.058Z,64.64
2018-09-26T02:26:00.060Z,64.52
2018-09-26T02:28:28.005Z,64.60
2018-09-26T02:30:55.972Z,64.92
2018-09-26T02:33:23.865Z,65.07
2018-09-26T02:35:51.828Z,64.90
2018-09-26T02:38:19.705Z,65.06
2018-09-26T02:40:47.690Z,65.18
2018-09-26T02:43:15.866Z,65.71
2018-09-26T02:45:43.812Z,64.85
2018-09-26T02:48:16.360Z,65.49
2018-09-26T02:50:44.380Z,65.53
2018-09-26T02:53:12.570Z,65.52
2018-09-26T02:55:40.550Z,65.73
2018-09-26T02:58:08.713Z,65.76
2018-09-26T03:00:36.659Z,65.84
2018-09-26T03:03:04.602Z,65.91
2018-09-26T03:05:32.625Z,66.33
2018-09-26T03:08:00.573Z,66.08
2018-09-26T03:10:28.583Z,66.19
2018-09-26T03:12:56.525Z,66.27
2018-09-26T03:15:24.574Z,66.07
2018-09-26T03:17:52.524Z,66.60
2018-09-26T03:20:20.461Z,66.27
2018-09-26T03:22:48.625Z,65.53
2018-09-26T03:25:16.578Z,65.93
2018-09-26T03:27:44.508Z,66.03
2018-09-26T03:30:12.495Z,66.09
2018-09-26T03:32:40.410Z,66.46
2018-09-26T03:35:08.401Z,66.20
2018-09-26T03:37:36.301Z,66.29
2018-09-26T03:40:04.321Z,65.92
2018-09-26T03:42:32.313Z,65.96
2018-09-26T03:45:00.233Z,66.25
2018-09-26T03:47:28.220Z,66.47
2018-09-26T03:49:56.104Z,66.31
2018-09-26T03:52:24.066Z,66.25
2018-09-26T03:54:51.960Z,66.28
2018-09-26T03:57:19.957Z,66.73
2018-09-26T03:59:48.050Z,66.55
2018-09-26T04:02:16.204Z,66.48
2018-09-26T04:04:44.357Z,65.84
2018-09-26T04:07:12.418Z,66.28
2018-09-26T04:09:40.720Z,66.11
2018-09-26T04:12:08.707Z,65.58
2018-09-26T04:14:36.631Z,65.28
2018-09-26T04:17:04.626Z,64.99
2018-09-26T04:19:32.537Z,65.18
2018-09-26T04:22:00.505Z,64.97
2018-09-26T04:24:28.387Z,65.55
2018-09-26T04:26:56.770Z,64.53
2018-09-26T04:29:24.565Z,64.81
2018-09-26T04:31:52.952Z,64.83
2018-09-26T04:34:21.099Z,64.40
2018-09-26T04:36:49.280Z,64.25
2018-09-26T04:39:17.209Z,63.96
2018-09-26T04:41:45.411Z,63.78
2018-09-26T04:44:13.482Z,63.81
2018-09-26T04:46:41.712Z,63.85
2018-09-26T04:49:09.830Z,64.11
2018-09-26T04:51:37.968Z,64.26
2018-09-26T04:54:06.503Z,64.03
2018-09-26T04:56:34.688Z,64.07
2018-09-26T04:59:03.086Z,64.20
2018-09-26T05:01:31.242Z,63.98
2018-09-26T05:03:59.462Z,64.36
2018-09-26T05:06:27.717Z,63.87
2018-09-26T05:08:55.860Z,64.65
2018-09-26T05:11:24.100Z,64.40
2018-09-26T05:13:52.340Z,64.35
2018-09-26T05:16:20.772Z,64.60
2018-09-26T05:18:48.936Z,64.85
2018-09-26T05:21:17.182Z,64.71
2018-09-26T05:23:45.422Z,65.18
2018-09-26T05:26:13.563Z,64.84
2018-09-26T05:28:41.741Z,65.00
2018-09-26T05:31:09.974Z,65.30
2018-09-26T05:33:38.132Z,65.25
2018-09-26T05:36:06.365Z,64.98
2018-09-26T05:38:34.520Z,63.02
2018-09-26T05:41:02.618Z,63.31
2018-09-26T05:43:30.859Z,62.38
2018-09-26T05:45:59.136Z,61.59
2018-09-26T05:48:27.295Z,62.60
2018-09-26T05:50:55.494Z,63.39
2018-09-26T05:53:23.803Z,63.82
2018-09-26T05:55:51.926Z,64.65
2018-09-26T05:58:20.107Z,65.11
2018-09-26T06:00:48.523Z,65.91
2018-09-26T06:03:16.923Z,65.14
2018-09-26T06:05:45.088Z,65.98
2018-09-26T06:08:13.252Z,65.68
2018-09-26T06:10:41.349Z,65.12
2018-09-26T06:13:09.710Z,65.32
2018-09-26T06:15:37.801Z,66.29
2018-09-26T06:18:06.115Z,65.32
2018-09-26T06:20:34.218Z,64.78
2018-09-26T06:23:02.467Z,66.11
2018-09-26T06:25:30.679Z,63.10
2018-09-26T06:27:58.799Z,60.79
2018-09-26T06:30:27.199Z,62.37
2018-09-26T06:32:55.402Z,60.27
2018-09-26T06:35:23.566Z,60.13
2018-09-26T06:37:51.819Z,60.93
2018-09-26T06:40:20.073Z,59.16
2018-09-26T06:42:48.469Z,58.79
2018-09-26T06:45:16.707Z,58.92
2018-09-26T06:47:44.937Z,57.13
2018-09-26T06:50:13.107Z,56.93
2018-09-26T06:52:41.311Z,56.89
2018-09-26T06:55:09.467Z,56.44
2018-09-26T06:57:37.621Z,55.05
2018-09-26T07:00:06.495Z,54.08
2018-09-26T07:02:34.705Z,55.82
2018-09-26T07:05:02.898Z,54.04
2018-09-26T07:07:31.230Z,54.36
2018-09-26T07:09:59.437Z,54.30
2018-09-26T07:12:27.735Z,54.10
2018-09-26T07:14:56.085Z,54.01
2018-09-26T07:17:24.239Z,53.13
2018-09-26T07:19:52.440Z,52.51
2018-09-26T07:22:20.661Z,52.77
2018-09-26T07:24:48.873Z,52.51
2018-09-26T07:27:17.024Z,52.68
2018-09-26T07:29:45.255Z,52.59
2018-09-26T07:32:13.395Z,52.13
2018-09-26T07:34:41.648Z,52.08
2018-09-26T07:37:09.760Z,50.46
2018-09-26T07:39:38.535Z,50.73
2018-09-26T07:42:06.796Z,50.65
2018-09-26T07:44:35.157Z,50.18
2018-09-26T07:47:03.288Z,50.06
2018-09-26T07:49:31.437Z,50.50
2018-09-26T07:51:59.663Z,51.02
2018-09-26T07:54:27.813Z,49.90
2018-09-26T07:56:55.903Z,50.34
2018-09-26T07:59:24.229Z,50.64
2018-09-26T08:01:52.343Z,50.63
2018-09-26T08:04:20.558Z,49.56
2018-09-26T08:06:48.760Z,49.46
2018-09-26T08:09:17.163Z,47.85
2018-09-26T08:11:45.485Z,47.91
2018-09-26T08:14:13.666Z,47.55
2018-09-26T08:16:41.690Z,47.30
2018-09-26T08:19:10.053Z,47.75
2018-09-26T08:21:38.203Z,46.12
2018-09-26T08:24:06.569Z,45.60
2018-09-26T08:26:34.618Z,45.11
2018-09-26T08:29:02.902Z,46.42
2018-09-26T08:31:31.083Z,46.44
2018-09-26T08:33:59.241Z,48.27
2018-09-26T08:36:27.426Z,47.23
2018-09-26T08:38:55.552Z,47.64
2018-09-26T08:41:23.711Z,48.03
2018-09-26T08:43:51.900Z,47.48
2018-09-26T08:46:20.359Z,48.47
2018-09-26T08:48:48.631Z,49.33
2018-09-26T08:51:16.791Z,47.91
2018-09-26T08:53:44.965Z,49.00
2018-09-26T08:56:13.284Z,48.54
2018-09-26T08:58:41.538Z,47.42
2018-09-26T09:01:15.200Z,47.63
2018-09-26T09:03:43.330Z,48.90
2018-09-26T09:06:11.578Z,48.15
2018-09-26T09:08:39.675Z,48.05
2018-09-26T09:11:07.907Z,49.50
2018-09-26T09:13:36.136Z,47.98
2018-09-26T09:16:04.344Z,47.91
2018-09-26T09:18:32.502Z,47.68
2018-09-26T09:21:00.744Z,48.64
2018-09-26T09:23:28.949Z,48.59
2018-09-26T09:25:57.149Z,47.67
2018-09-26T09:28:25.228Z,48.31
2018-09-26T09:30:53.454Z,47.83
2018-09-26T09:33:21.578Z,47.92
2018-09-26T09:35:49.899Z,48.75
2018-09-26T09:38:18.076Z,48.39
2018-09-26T09:40:46.295Z,47.60
2018-09-26T09:43:14.555Z,47.15
2018-09-26T09:45:42.920Z,46.39
2018-09-26T09:48:11.139Z,47.41
2018-09-26T09:50:39.636Z,47.42
2018-09-26T09:53:08.125Z,46.83
2018-09-26T09:55:36.302Z,45.58
2018-09-26T09:58:04.531Z,46.93
2018-09-26T10:00:38.282Z,47.14
2018-09-26T10:03:06.522Z,46.32
2018-09-26T10:05:34.836Z,46.17
2018-09-26T10:08:03.057Z,47.72
2018-09-26T10:10:31.432Z,46.72
2018-09-26T10:12:59.722Z,46.46
2018-09-26T10:15:28.118Z,46.90
2018-09-26T10:17:56.297Z,45.79
2018-09-26T10:20:24.890Z,45.91
2018-09-26T10:22:53.086Z,47.49
2018-09-26T10:25:21.380Z,46.03
2018-09-26T10:27:49.479Z,45.62
2018-09-26T10:30:17.861Z,46.19
2018-09-26T10:32:45.997Z,46.24
2018-09-26T10:35:14.157Z,46.47
2018-09-26T10:37:42.417Z,45.73
2018-09-26T10:40:10.620Z,46.51
2018-09-26T10:42:39.094Z,46.30
2018-09-26T10:45:07.383Z,45.75
2018-09-26T10:47:35.717Z,46.40
2018-09-26T10:50:03.871Z,46.78
2018-09-26T10:52:32.100Z,46.22
2018-09-26T10:55:00.333Z,46.38
2018-09-26T10:57:28.529Z,45.25
2018-09-26T10:59:56.685Z,45.55
2018-09-26T11:02:24.951Z,44.79
2018-09-26T11:04:53.069Z,43.58
2018-09-26T11:07:21.997Z,42.68
2018-09-26T11:09:50.192Z,42.84
2018-09-26T11:12:18.510Z,42.74
2018-09-26T11:14:46.727Z,43.33
2018-09-26T11:17:14.926Z,43.20
2018-09-26T11:19:43.054Z,42.67
2018-09-26T11:22:11.372Z,43.98
2018-09-26T11:24:39.585Z,43.83
2018-09-26T11:27:08.178Z,44.14
2018-09-26T11:29:36.679Z,44.71
2018-09-26T11:32:05.162Z,44.85
2018-09-26T11:34:33.381Z,44.85
2018-09-26T11:37:01.469Z,44.13
2018-09-26T11:39:29.589Z,45.29
2018-09-26T11:41:57.796Z,45.79
2018-09-26T11:44:26.092Z,45.40
2018-09-26T11:46:55.355Z,45.15
2018-09-26T11:49:23.567Z,44.85
2018-09-26T11:51:51.869Z,45.33
2018-09-26T11:54:20.119Z,44.39
2018-09-26T11:56:48.360Z,45.05
2018-09-26T11:59:16.741Z,44.89
2018-09-26T12:01:47.827Z,45.47
2018-09-26T12:04:16.194Z,44.92
2018-09-26T12:06:44.279Z,45.59
2018-09-26T12:09:12.429Z,45.03
2018-09-26T12:11:40.603Z,44.70
2018-09-26T12:14:08.943Z,45.67
2018-09-26T12:16:37.202Z,44.77
2018-09-26T12:19:05.385Z,44.96
2018-09-26T12:21:33.596Z,44.54
2018-09-26T12:24:08.539Z,44.17
2018-09-26T12:26:36.936Z,43.76
2018-09-26T12:29:05.197Z,43.87
2018-09-26T12:31:33.266Z,44.04
2018-09-26T12:34:01.480Z,44.11
2018-09-26T12:36:29.841Z,43.53
2018-09-26T12:38:58.069Z,43.84
2018-09-26T12:41:26.404Z,44.17
2018-09-26T12:43:54.690Z,44.33
2018-09-26T12:46:22.931Z,44.59
2018-09-26T12:48:51.268Z,44.31
2018-09-26T12:51:19.425Z,44.19
2018-09-26T12:53:47.801Z,43.80
2018-09-26T12:56:15.921Z,45.06
2018-09-26T12:58:44.245Z,44.93
2018-09-26T13:01:12.487Z,44.06
2018-09-26T13:03:40.704Z,43.86
2018-09-26T13:06:09.139Z,43.95
2018-09-26T13:08:37.368Z,44.38
2018-09-26T13:11:05.577Z,44.13
2018-09-26T13:13:33.759Z,43.45
2018-09-26T13:16:02.022Z,42.83
2018-09-26T13:18:30.178Z,42.94
2018-09-26T13:20:58.467Z,43.62
2018-09-26T13:23:26.665Z,43.02
2018-09-26T13:25:54.911Z,43.22
2018-09-26T13:28:23.102Z,43.52
2018-09-26T13:30:51.487Z,43.63
2018-09-26T13:33:19.685Z,43.26
2018-09-26T13:35:47.990Z,43.05
2018-09-26T13:38:16.208Z,42.99
2018-09-26T13:40:44.456Z,42.45
2018-09-26T13:43:12.577Z,43.08
2018-09-26T13:45:40.764Z,43.21
2018-09-26T13:48:08.892Z,42.50
2018-09-26T13:50:37.104Z,42.16
2018-09-26T13:53:05.385Z,41.59
2018-09-26T13:55:33.603Z,42.89
2018-09-26T13:58:01.706Z,43.43
2018-09-26T14:00:29.940Z,43.81
2018-09-26T14:02:58.268Z,43.46
2018-09-26T14:05:26.445Z,43.07
2018-09-26T14:07:54.552Z,42.52
2018-09-26T14:10:22.828Z,43.23
2018-09-26T14:12:50.980Z,43.50
2018-09-26T14:15:19.193Z,41.95
2018-09-26T14:17:47.447Z,42.32
2018-09-26T14:20:19.731Z,42.72
2018-09-26T14:22:48.092Z,42.33
2018-09-26T14:25:16.405Z,42.14
2018-09-26T14:27:44.631Z,42.32
2018-09-26T14:30:13.005Z,43.37
2018-09-26T14:32:41.328Z,42.57
2018-09-26T14:35:09.720Z,41.79
2018-09-26T14:37:38.170Z,43.14
2018-09-26T14:40:06.933Z,41.91
2018-09-26T14:42:35.286Z,41.42
2018-09-26T14:45:03.601Z,42.51
2018-09-26T14:47:31.920Z,41.98
2018-09-26T14:50:00.257Z,42.32
2018-09-26T14:52:28.569Z,42.35
2018-09-26T14:54:56.942Z,43.23
2018-09-26T14:57:25.383Z,42.01
2018-09-26T14:59:53.621Z,41.83
2018-09-26T15:02:22.013Z,42.30
2018-09-26T15:04:50.267Z,41.83
2018-09-26T15:07:18.619Z,41.99
2018-09-26T15:09:46.850Z,42.45
2018-09-26T15:12:15.320Z,42.61
2018-09-26T15:14:43.694Z,42.64
2018-09-26T15:17:12.033Z,41.89
2018-09-26T15:19:40.358Z,42.72
2018-09-26T15:22:08.810Z,42.55
2018-09-26T15:24:37.090Z,42.71
2018-09-26T15:27:08.301Z,43.50
2018-09-26T15:29:36.670Z,42.90
2018-09-26T15:32:05.061Z,41.92
2018-09-26T15:34:33.537Z,42.73
2018-09-26T15:37:02.310Z,42.20
2018-09-26T15:39:30.925Z,43.05
2018-09-26T15:41:59.587Z,42.98
2018-09-26T15:44:28.591Z,42.80
2018-09-26T15:46:58.007Z,42.06
2018-09-26T15:49:26.529Z,42.40
2018-09-26T15:51:55.452Z,42.91
2018-09-26T15:54:24.132Z,41.82
2018-09-26T15:56:53.970Z,41.99
2018-09-26T15:59:22.526Z,42.91
2018-09-26T16:01:51.171Z,42.23
2018-09-26T16:04:19.823Z,41.72
2018-09-26T16:06:48.499Z,42.30
2018-09-26T16:09:17.118Z,41.77
2018-09-26T16:11:45.469Z,41.73
2018-09-26T16:14:13.863Z,42.40
2018-09-26T16:16:42.820Z,41.83
2018-09-26T16:19:11.868Z,41.87
2018-09-26T16:21:40.635Z,42.50
2018-09-26T16:24:09.226Z,41.29
2018-09-26T16:26:37.761Z,42.30
2018-09-26T16:29:06.393Z,42.71
2018-09-26T16:31:35.227Z,42.90
2018-09-26T16:34:03.787Z,43.25
2018-09-26T16:36:32.534Z,43.10
2018-09-26T16:39:01.228Z,43.37
2018-09-26T16:41:29.847Z,43.20
2018-09-26T16:43:58.473Z,43.16
2018-09-26T16:46:27.283Z,42.83
2018-09-26T16:48:55.792Z,43.45
2018-09-26T16:51:24.337Z,42.37
2018-09-26T16:53:53.116Z,43.62
2018-09-26T16:56:21.733Z,43.50
2018-09-26T16:58:50.623Z,43.46
2018-09-26T17:01:19.276Z,43.00
2018-09-26T17:03:47.896Z,42.87
2018-09-26T17:06:16.420Z,43.54
2018-09-26T17:08:44.855Z,43.95
2018-09-26T17:11:13.765Z,44.22
2018-09-26T17:13:42.684Z,44.49
2018-09-26T17:16:11.217Z,43.87
2018-09-26T17:18:39.866Z,43.85
2018-09-26T17:21:08.800Z,44.38
2018-09-26T17:23:37.503Z,44.48
2018-09-26T17:26:06.010Z,44.32
2018-09-26T17:28:34.496Z,44.69
2018-09-26T17:31:03.200Z,44.58
2018-09-26T17:33:31.716Z,44.85
2018-09-26T17:36:00.181Z,45.70
2018-09-26T17:38:28.636Z,45.89
2018-09-26T17:40:57.261Z,45.68
2018-09-26T17:43:25.813Z,45.95
2018-09-26T17:45:54.176Z,46.85
2018-09-26T17:48:25.416Z,46.26
2018-09-26T17:50:53.706Z,46.34
2018-09-26T17:53:22.025Z,46.46
2018-09-26T17:55:50.456Z,46.57
2018-09-26T17:58:18.875Z,46.96
2018-09-26T18:00:47.336Z,47.00
2018-09-26T18:03:16.021Z,47.02
2018-09-26T18:05:44.422Z,47.08
2018-09-26T18:08:13.254Z,47.17
2018-09-26T18:10:41.748Z,47.65
2018-09-26T18:13:10.375Z,46.86
2018-09-26T18:15:39.140Z,47.66
2018-09-26T18:18:08.705Z,47.50
2018-09-26T18:20:38.545Z,47.93
2018-09-26T18:23:07.283Z,48.12
2018-09-26T18:25:36.822Z,47.96
2018-09-26T18:28:05.780Z,47.46
2018-09-26T18:30:34.315Z,47.36
2018-09-26T18:33:02.811Z,48.16
2018-09-26T18:35:31.501Z,47.82
2018-09-26T18:37:59.917Z,47.84
2018-09-26T18:40:28.586Z,47.90
2018-09-26T18:42:57.044Z,47.71
2018-09-26T18:45:25.706Z,48.83
2018-09-26T18:47:54.155Z,48.54
2018-09-26T18:50:22.617Z,48.62
2018-09-26T18:52:51.092Z,48.31
2018-09-26T18:55:19.681Z,48.22
2018-09-26T18:57:48.238Z,48.79
2018-09-26T19:00:16.712Z,48.86
2018-09-26T19:02:45.166Z,48.60
2018-09-26T19:05:13.678Z,49.34
2018-09-26T19:07:42.164Z,49.63
2018-09-26T19:10:10.736Z,49.33
2018-09-26T19:12:39.335Z,49.89
2018-09-26T19:15:08.269Z,48.96
2018-09-26T19:17:36.728Z,49.74
2018-09-26T19:20:05.576Z,49.96
2018-09-26T19:22:34.553Z,49.83
2018-09-26T19:25:03.220Z,50.46
2018-09-26T19:27:31.784Z,50.10
2018-09-26T19:30:00.397Z,49.80
2018-09-26T19:32:29.147Z,49.63
2018-09-26T19:34:57.957Z,49.99
2018-09-26T19:37:26.348Z,49.80
2018-09-26T19:39:55.901Z,49.97
2018-09-26T19:42:24.192Z,50.58
2018-09-26T19:44:52.566Z,50.06
2018-09-26T19:47:20.977Z,50.46
2018-09-26T19:49:49.308Z,50.99
2018-09-26T19:52:17.833Z,50.46
2018-09-26T19:54:46.108Z,50.50
2018-09-26T19:57:14.396Z,49.61
2018-09-26T19:59:42.557Z,50.71
2018-09-26T20:02:10.630Z,50.35
2018-09-26T20:04:38.796Z,51.31
2018-09-26T20:07:06.951Z,51.31
2018-09-26T20:09:35.188Z,50.52
2018-09-26T20:12:03.401Z,49.96
2018-09-26T20:14:32.957Z,50.62
2018-09-26T20:17:01.057Z,50.39
2018-09-26T20:19:29.390Z,51.02
2018-09-26T20:21:57.603Z,51.16
2018-09-26T20:24:25.976Z,50.62
2018-09-26T20:26:54.405Z,50.17
2018-09-26T20:29:22.718Z,50.86
2018-09-26T20:31:50.666Z,49.63
2018-09-26T20:34:18.657Z,50.41
2018-09-26T20:36:46.769Z,50.17
2018-09-26T20:39:14.786Z,50.29
2018-09-26T20:41:42.763Z,50.53
2018-09-26T20:44:10.701Z,50.28
2018-09-26T20:46:38.732Z,50.48
2018-09-26T20:49:06.773Z,50.88
2018-09-26T20:51:34.943Z,50.65
2018-09-26T20:54:02.902Z,50.32
2018-09-26T20:56:30.927Z,50.23
2018-09-26T20:58:58.956Z,50.33
2018-09-26T21:01:26.988Z,50.52
2018-09-26T21:03:54.939Z,50.49
2018-09-26T21:06:23.198Z,50.91
2018-09-26T21:08:51.146Z,51.03
2018-09-26T21:11:19.341Z,51.01
2018-09-26T21:13:47.361Z,51.05
2018-09-26T21:16:15.359Z,52.13
2018-09-26T21:18:43.317Z,51.43
2018-09-26T21:21:11.296Z,52.04
2018-09-26T21:23:39.249Z,50.74
2018-09-26T21:26:07.336Z,51.64
2018-09-26T21:28:35.285Z,51.65
2018-09-26T21:31:03.316Z,51.12
2018-09-26T21:33:31.286Z,51.19
2018-09-26T21:35:59.330Z,51.57
2018-09-26T21:38:27.333Z,51.13
2018-09-26T21:40:55.336Z,51.39
2018-09-26T21:43:23.492Z,51.56
2018-09-26T21:45:51.520Z,51.41
2018-09-26T21:48:19.655Z,51.34
2018-09-26T21:50:47.697Z,51.23
2018-09-26T21:53:15.652Z,51.94
2018-09-26T21:55:43.883Z,51.29
2018-09-26T21:58:11.911Z,51.74
2018-09-26T22:00:46.509Z,51.65
2018-09-26T22:03:14.441Z,51.83
2018-09-26T22:05:42.462Z,52.22
2018-09-26T22:08:10.482Z,51.85
2018-09-26T22:10:38.450Z,52.09
2018-09-26T22:13:06.415Z,51.72
2018-09-26T22:15:34.410Z,51.52
2018-09-26T22:18:02.404Z,51.68
2018-09-26T22:20:30.494Z,51.87
2018-09-26T22:22:58.406Z,51.10
2018-09-26T22:25:26.428Z,51.95
2018-09-26T22:27:54.519Z,51.16
2018-09-26T22:30:22.528Z,51.73
2018-09-26T22:32:50.526Z,50.57
2018-09-26T22:35:18.506Z,51.68
2018-09-26T22:37:46.567Z,51.82
2018-09-26T22:40:15.292Z,51.00
2018-09-26T22:42:43.305Z,51.22
2018-09-26T22:45:11.273Z,51.35
2018-09-26T22:47:39.293Z,51.92
2018-09-26T22:50:07.248Z,51.28
2018-09-26T22:52:35.384Z,51.69
2018-09-26T22:55:03.400Z,51.43
2018-09-26T22:57:31.453Z,51.07
2018-09-26T22:59:59.401Z,51.75
2018-09-26T23:02:27.396Z,51.76
2018-09-26T23:04:55.409Z,51.76
2018-09-26T23:07:23.450Z,52.19
2018-09-26T23:09:51.523Z,51.44
2018-09-26T23:12:19.576Z,51.06
2018-09-26T23:14:47.523Z,52.14
2018-09-26T23:17:15.846Z,51.98
2018-09-26T23:19:43.784Z,51.83
2018-09-26T23:22:11.794Z,52.12
2018-09-26T23:24:39.713Z,52.00
2018-09-26T23:27:07.717Z,51.36
2018-09-26T23:29:35.855Z,51.01
2018-09-26T23:32:03.888Z,51.94
2018-09-26T23:34:31.880Z,50.90
2018-09-26T23:37:00.004Z,51.07
2018-09-26T23:39:28.019Z,50.95
2018-09-26T23:41:55.964Z,51.17
2018-09-26T23:44:24.020Z,51.60
2018-09-26T23:46:52.109Z,51.38
2018-09-26T23:49:20.084Z,51.49
2018-09-26T23:51:48.084Z,51.18
2018-09-26T23:54:16.683Z,51.94
2018-09-26T23:56:44.643Z,52.05
2018-09-26T23:59:12.617Z,52.25
